Daily Weather Observations for Burdell (Townsville)
For Monday 11th February 2019

This table is designed for ease of comparison to Bureau of Meteorology recorded weather data.

Station Details Name: BURDELL Lat: -19.24 Lon: 146.69 Height: 8.5 m
Date/Time
EST
Temp
°C
App
Temp
°C
Dew
Point
°C
Rel
Hum
%
Delta-T
°C
Wind Press
QNH
hPa
Press
MSL
hPa
Rain since
9am
mm
Dir  Spd
km/h
Gust
km/h
Spd
kts
Gust
kts
11/11:30pm 28.3 35.9 27.1 93 0.9 N 1 2 1 1 1005.1 1005.1 0.0
11/11:00pm 28.3 35.1 26.9 92 1.1 NNW 7 10 4 6 1004.9 1004.9 0.0
11/10:30pm 28.2 35.0 27.0 93 0.9 N 9 13 5 7 1004.6 1004.6 0.0
11/10:00pm 28.4 35.2 26.8 91 1.2 NW 8 10 4 6 1004.4 1004.4 0.0
11/09:30pm 28.6 35.9 27.0 91 1.2 WNW 4 8 2 4 1004.3 1004.3 0.0
11/09:00pm 28.7 36.0 26.9 90 1.4 N 4 8 2 4 1003.8 1003.8 0.0
11/08:30pm 29.2 37.3 27.0 88 1.7 ESE 2 3 1 2 1003.6 1003.6 0.0
11/08:00pm 29.3 37.1 26.7 86 2.0 SE 5 8 3 4 1003.0 1003.0 0.0
11/07:30pm 29.8 38.8 27.2 86 2.0 SE 7 10 4 6 1002.5 1002.5 0.0
11/07:00pm 30.6 39.9 27.2 83 2.6 SE 4 8 2 4 1001.9 1001.9 0.0
11/06:30pm 31.2 41.2 27.1 79 3.1 N 9 10 5 6 1001.5 1001.5 0.0
11/06:00pm 32.3 41.5 26.5 73 4.4 N 15 21 8 11 1001.3 1001.3 0.0
11/05:30pm 33.0 40.6 25.0 63 5.9 NNW 17 21 9 11 1001.4 1001.4 0.0
11/05:00pm 34.0 42.6 25.4 61 6.4 NNW 17 23 9 13 1000.9 1000.9 0.0
11/04:30pm 34.7 40.1 23.0 51 8.4 NNW 18 21 10 11 1000.7 1000.7 0.0
11/04:00pm 35.5 40.1 22.0 46 9.6 NNW 18 23 10 13 1000.7 1000.7 0.0
11/03:30pm 34.7 39.6 22.4 49 8.8 NNW 16 18 9 10 1001.3 1001.3 0.0
11/03:00pm 35.8 39.4 21.2 44 10.2 N 17 23 9 13 1001.4 1001.4 0.0
11/02:30pm 34.9 40.1 22.6 49 8.8 NNW 24 29 13 16 1001.6 1001.6 0.0
11/02:00pm 37.5 44.6 23.5 47 10.1 NNW 22 32 12 17 1001.7 1001.7 0.0
11/01:30pm 38.7 41.3 19.0 32 13.3 WSW 10 16 5 9 1002.2 1002.2 0.0
11/01:00pm 38.2 39.6 17.5 30 13.6 SW 14 18 7 10 1002.6 1002.6 0.0
11/12:30pm 37.9 40.0 18.7 33 12.9 WNW 14 21 8 11 1003.3 1003.3 0.0
11/12:00pm 37.6 40.9 20.2 37 12.0 W 11 18 6 10 1003.6 1003.6 0.0
11/11:30am 37.1 39.9 19.5 36 12.0 S 12 21 7 11 1003.8 1003.8 0.0
11/11:00am 36.9 40.0 20.1 38 11.5 S 7 10 4 6 1004.3 1004.3 0.0
11/10:30am 36.1 38.3 19.6 39 11.2 SW 9 16 5 9 1004.5 1004.5 0.0
11/10:00am 34.9 37.6 20.1 42 10.2 W 12 16 7 9 1004.8 1004.8 0.0
11/09:30am 33.9 36.1 19.8 44 9.6 WSW 9 13 5 7 1005.0 1005.0 0.0
11/09:00am 32.8 36.8 22.5 56 7.3 SW 4 5 2 3 1005.0 1005.0 0.0
11/08:30am 31.7 36.2 22.9 60 6.3 SSW 6 10 3 6 1005.0 1005.0 0.0
11/08:00am 30.0 34.8 24.1 72 4.3 SSE 10 13 5 7 1004.8 1004.8 0.0
11/07:30am 28.1 34.1 25.6 88 1.9 SSE 4 5 2 3 1004.7 1004.7 0.0
11/07:00am 27.0 32.3 25.6 92 1.0 SSE 8 13 4 7 1004.6 1004.6 0.0
11/06:30am 26.0 30.9 24.4 91 1.2 S 6 8 3 4 1003.9 1003.9 0.0
11/06:00am 25.4 31.3 24.6 96 0.6 S 2 2 1 1 1003.7 1003.7 0.0
11/05:30am 25.5 31.5 24.6 95 0.7 SSW 1 2 0 1 1003.1 1003.1 0.0
11/05:00am 25.8 32.2 25.1 96 0.5 SSE 1 2 0 1 1002.5 1002.5 0.0
11/04:30am 26.1 32.7 25.2 95 0.7 SSE 0 2 0 1 1002.4 1002.4 0.0
11/04:00am 26.2 32.4 25.7 97 0.4 SSW 4 5 2 3 1002.2 1002.2 0.0
11/03:30am 26.3 33.3 26.0 98 0.2 SW 4 8 2 4 1002.0 1002.0 0.0
11/03:00am 26.6 33.2 26.3 98 0.2 SW 4 8 2 4 1001.9 1001.9 0.0
11/02:30am 26.7 33.7 26.4 98 0.2 S 2 2 1 1 1002.1 1002.1 0.0
11/02:00am 26.9 33.7 26.6 98 0.2 SSE 4 5 2 3 1002.0 1002.0 0.0
11/01:30am 27.1 34.2 26.8 98 0.2 SSE 5 5 2 3 1002.5 1002.5 0.0
11/01:00am 27.2 34.4 26.9 98 0.2 S 3 5 2 3 1002.6 1002.6 0.0
11/12:30am 27.4 34.9 26.9 97 0.4 SSW 1 2 0 1 1002.7 1002.7 0.0
11/12:00am 27.7 34.9 27.1 97 0.5 WSW 3 5 2 3 1003.0 1003.0 0.0
 


NOTE: The apparent temperature specified in the table above is calculated using both the Heat Index and Steadman method. This differs to the Bureau of Meteorology's calculation which uses the Steadman method alone.